createdAt,value
2019-02-17T00:01:00.453Z,23.43
2019-02-17T00:03:29.095Z,21.87
2019-02-17T00:05:57.745Z,21.73
2019-02-17T00:08:26.362Z,22.80
2019-02-17T00:10:54.966Z,22.40
2019-02-17T00:13:23.822Z,23.70
2019-02-17T00:15:52.430Z,25.17
2019-02-17T00:18:21.096Z,24.90
2019-02-17T00:20:49.700Z,23.43
2019-02-17T00:23:18.373Z,22.53
2019-02-17T00:25:46.920Z,23.33
2019-02-17T00:28:15.607Z,24.90
2019-02-17T00:30:44.233Z,23.03
2019-02-17T00:33:12.920Z,24.33
2019-02-17T00:35:41.497Z,23.73
2019-02-17T00:38:10.379Z,24.07
2019-02-17T00:40:38.970Z,25.50
2019-02-17T00:43:07.569Z,26.27
2019-02-17T00:45:36.132Z,26.03
2019-02-17T00:48:04.830Z,24.73
2019-02-17T00:50:33.776Z,25.37
2019-02-17T00:53:02.449Z,24.83
2019-02-17T00:55:30.982Z,25.00
2019-02-17T00:57:59.667Z,25.53
2019-02-17T01:00:28.177Z,27.00
2019-02-17T01:02:57.034Z,25.33
2019-02-17T01:05:25.625Z,26.27
2019-02-17T01:07:54.235Z,23.73
2019-02-17T01:10:22.787Z,25.23
2019-02-17T01:12:51.601Z,24.80
2019-02-17T01:15:20.158Z,24.77
2019-02-17T01:17:48.883Z,24.23
2019-02-17T01:20:18.023Z,25.00
2019-02-17T01:22:46.748Z,23.27
2019-02-17T01:25:15.401Z,22.90
2019-02-17T01:27:44.038Z,23.70
2019-02-17T01:30:14.637Z,22.60
2019-02-17T01:32:43.622Z,22.73
2019-02-17T01:35:12.240Z,23.30
2019-02-17T01:37:40.921Z,23.27
2019-02-17T01:40:10.356Z,23.50
2019-02-17T01:42:39.079Z,22.63
2019-02-17T01:45:09.376Z,23.73
2019-02-17T01:47:38.217Z,23.30
2019-02-17T01:50:10.216Z,22.77
2019-02-17T01:52:38.865Z,23.20
2019-02-17T01:55:08.592Z,22.20
2019-02-17T01:57:37.288Z,23.60
2019-02-17T02:00:12.001Z,22.43
2019-02-17T02:02:40.601Z,22.30
2019-02-17T02:05:09.506Z,22.80
2019-02-17T02:07:38.143Z,22.40
2019-02-17T02:10:09.165Z,22.10
2019-02-17T02:12:37.756Z,22.93
2019-02-17T02:15:09.461Z,22.10
2019-02-17T02:17:38.114Z,22.60
2019-02-17T02:20:09.877Z,22.17
2019-02-17T02:22:38.554Z,21.33
2019-02-17T02:25:07.854Z,22.40
2019-02-17T02:27:36.490Z,21.33
2019-02-17T02:30:08.315Z,22.00
2019-02-17T02:32:37.078Z,24.83
2019-02-17T02:35:06.318Z,26.93
2019-02-17T02:37:35.177Z,25.07
2019-02-17T02:40:04.376Z,24.67
2019-02-17T02:42:33.032Z,25.30
2019-02-17T02:45:01.642Z,24.40
2019-02-17T02:47:30.354Z,25.97
2019-02-17T02:49:59.086Z,24.20
2019-02-17T02:52:27.799Z,23.30
2019-02-17T02:54:56.382Z,21.40
2019-02-17T02:57:25.149Z,24.80
2019-02-17T02:59:53.779Z,25.27
2019-02-17T03:02:22.535Z,23.13
2019-02-17T03:04:51.110Z,23.83
2019-02-17T03:07:19.812Z,24.30
2019-02-17T03:09:48.396Z,24.50
2019-02-17T03:12:17.167Z,24.60
2019-02-17T03:14:45.782Z,25.80
2019-02-17T03:17:14.436Z,24.53
2019-02-17T03:19:43.057Z,23.10
2019-02-17T03:22:11.704Z,26.60
2019-02-17T03:24:40.343Z,25.50
2019-02-17T03:27:08.966Z,26.20
2019-02-17T03:29:37.615Z,26.27
2019-02-17T03:32:07.304Z,24.33
2019-02-17T03:34:38.418Z,25.70
2019-02-17T03:37:07.117Z,25.70
2019-02-17T03:39:35.882Z,24.60
2019-02-17T03:42:04.486Z,24.80
2019-02-17T03:44:33.070Z,23.60
2019-02-17T03:47:01.654Z,24.03
2019-02-17T03:49:30.241Z,24.10
2019-02-17T03:51:58.820Z,24.57
2019-02-17T03:54:27.379Z,24.77
2019-02-17T03:56:56.086Z,25.03
2019-02-17T03:59:24.654Z,21.57
2019-02-17T04:01:53.357Z,23.60
2019-02-17T04:04:21.919Z,23.23
2019-02-17T04:06:50.598Z,24.13
2019-02-17T04:09:19.208Z,23.90
2019-02-17T04:11:47.897Z,22.37
2019-02-17T04:14:16.457Z,23.53
2019-02-17T04:16:45.062Z,23.10
2019-02-17T04:19:14.116Z,23.23
2019-02-17T04:21:42.739Z,22.53
2019-02-17T04:24:11.310Z,20.53
2019-02-17T04:26:39.915Z,21.23
2019-02-17T04:29:10.291Z,21.63
2019-02-17T04:31:38.852Z,22.93
2019-02-17T04:34:07.500Z,22.57
2019-02-17T04:36:36.062Z,22.37
2019-02-17T04:39:06.241Z,22.23
2019-02-17T04:41:34.878Z,20.93
2019-02-17T04:44:03.471Z,22.13
2019-02-17T04:46:32.189Z,19.83
2019-02-17T04:49:00.839Z,21.50
2019-02-17T04:51:29.716Z,21.30
2019-02-17T04:53:58.354Z,22.23
2019-02-17T04:56:27.009Z,21.37
2019-02-17T04:58:55.591Z,21.10
2019-02-17T05:01:24.259Z,20.53
2019-02-17T05:03:52.878Z,21.40
2019-02-17T05:06:21.418Z,20.77
2019-02-17T05:08:51.210Z,20.63
2019-02-17T05:11:19.825Z,20.03
2019-02-17T05:13:48.440Z,21.47
2019-02-17T05:16:17.113Z,19.87
2019-02-17T05:18:45.686Z,20.50
2019-02-17T05:21:14.400Z,18.40
2019-02-17T05:23:43.066Z,20.17
2019-02-17T05:26:11.726Z,19.07
2019-02-17T05:28:40.510Z,18.60
2019-02-17T05:31:09.254Z,19.30
2019-02-17T05:33:37.807Z,19.20
2019-02-17T05:36:06.542Z,19.77
2019-02-17T05:38:35.178Z,19.67
2019-02-17T05:41:03.742Z,19.10
2019-02-17T05:43:32.339Z,19.90
2019-02-17T05:46:01.023Z,19.30
2019-02-17T05:48:29.756Z,17.87
2019-02-17T05:50:59.124Z,19.00
2019-02-17T05:53:27.696Z,18.10
2019-02-17T05:55:56.568Z,18.97
2019-02-17T05:58:25.176Z,18.90
2019-02-17T06:01:03.226Z,18.60
2019-02-17T06:03:24.087Z,17.37
2019-02-17T06:05:52.766Z,17.80
2019-02-17T06:08:21.526Z,18.23
2019-02-17T06:10:50.114Z,18.83
2019-02-17T06:13:18.758Z,18.10
2019-02-17T06:15:47.387Z,20.00
2019-02-17T06:18:16.063Z,18.93
2019-02-17T06:20:44.655Z,19.27
2019-02-17T06:23:13.258Z,18.20
2019-02-17T06:25:41.842Z,18.03
2019-02-17T06:28:10.586Z,18.53
2019-02-17T06:30:39.285Z,18.80
2019-02-17T06:33:07.907Z,18.70
2019-02-17T06:35:36.482Z,18.03
2019-02-17T06:38:05.173Z,17.53
2019-02-17T06:40:33.731Z,17.60
2019-02-17T06:43:02.336Z,18.17
2019-02-17T06:45:30.930Z,18.23
2019-02-17T06:47:59.582Z,16.43
2019-02-17T06:50:28.136Z,17.00
2019-02-17T06:52:56.713Z,18.00
2019-02-17T06:55:29.821Z,17.63
2019-02-17T06:57:58.378Z,17.47
2019-02-17T07:00:28.577Z,16.53
2019-02-17T07:02:57.814Z,15.13
2019-02-17T07:05:42.709Z,15.97
2019-02-17T07:08:11.638Z,17.10
2019-02-17T07:10:40.157Z,17.60
2019-02-17T07:13:08.977Z,16.80
2019-02-17T07:15:37.519Z,18.13
2019-02-17T07:18:06.093Z,17.30
2019-02-17T07:20:34.658Z,15.83
2019-02-17T07:23:03.793Z,16.00
2019-02-17T07:25:32.517Z,15.97
2019-02-17T07:28:01.233Z,15.23
2019-02-17T07:30:30.097Z,16.57
2019-02-17T07:32:58.680Z,15.00
2019-02-17T07:35:27.262Z,14.93
2019-02-17T07:37:55.930Z,14.80
2019-02-17T07:40:24.511Z,16.40
2019-02-17T07:42:53.115Z,15.83
2019-02-17T07:45:21.696Z,14.93
2019-02-17T07:47:50.352Z,14.83
2019-02-17T07:50:19.068Z,15.27
2019-02-17T07:52:47.664Z,13.73
2019-02-17T07:55:16.241Z,14.80
2019-02-17T07:57:44.813Z,14.60
2019-02-17T08:00:13.648Z,14.00
2019-02-17T08:02:42.308Z,14.13
2019-02-17T08:05:10.950Z,14.90
2019-02-17T08:07:39.593Z,15.50
2019-02-17T08:10:09.898Z,14.80
2019-02-17T08:12:38.679Z,14.67
2019-02-17T08:15:09.712Z,15.83
2019-02-17T08:17:38.306Z,15.20
2019-02-17T08:20:09.496Z,14.17
2019-02-17T08:22:38.724Z,13.60
2019-02-17T08:25:08.562Z,14.43
2019-02-17T08:27:37.306Z,14.33
2019-02-17T08:30:11.477Z,13.90
2019-02-17T08:32:40.160Z,14.23
2019-02-17T08:35:09.561Z,14.47
2019-02-17T08:37:38.208Z,15.47
2019-02-17T08:40:09.433Z,14.87
2019-02-17T08:42:38.057Z,14.70
2019-02-17T08:45:08.665Z,14.40
2019-02-17T08:47:37.629Z,15.90
2019-02-17T08:50:09.346Z,15.30
2019-02-17T08:52:38.102Z,15.10
2019-02-17T08:55:09.328Z,14.90
2019-02-17T08:57:38.166Z,15.27
2019-02-17T09:00:12.446Z,14.30
2019-02-17T09:02:41.062Z,14.33
2019-02-17T09:05:09.570Z,15.17
2019-02-17T09:07:38.421Z,14.77
2019-02-17T09:10:12.124Z,15.03
2019-02-17T09:12:40.753Z,14.70
2019-02-17T09:15:11.724Z,14.60
2019-02-17T09:17:40.350Z,14.40
2019-02-17T09:20:10.752Z,14.93
2019-02-17T09:22:39.488Z,15.23
2019-02-17T09:25:10.607Z,15.33
2019-02-17T09:27:39.438Z,14.63
2019-02-17T09:30:11.275Z,14.40
2019-02-17T09:32:40.238Z,16.07
2019-02-17T09:35:08.868Z,14.27
2019-02-17T09:37:37.504Z,14.80
2019-02-17T09:40:09.009Z,15.23
2019-02-17T09:42:37.559Z,14.70
2019-02-17T09:45:09.728Z,14.90
2019-02-17T09:47:38.377Z,15.90
2019-02-17T09:50:12.040Z,14.73
2019-02-17T09:52:40.648Z,14.60
2019-02-17T09:55:10.614Z,13.93
2019-02-17T09:57:39.672Z,13.47
2019-02-17T10:00:15.944Z,15.13
2019-02-17T10:02:44.627Z,17.00
2019-02-17T10:05:13.954Z,16.20
2019-02-17T10:07:42.631Z,15.33
2019-02-17T10:10:16.508Z,16.20
2019-02-17T10:12:45.122Z,16.73
2019-02-17T10:15:14.433Z,15.13
2019-02-17T10:17:42.970Z,15.93
2019-02-17T10:20:13.423Z,16.10
2019-02-17T10:22:42.149Z,15.60
2019-02-17T10:25:11.179Z,15.83
2019-02-17T10:27:39.802Z,15.83
2019-02-17T10:30:16.290Z,16.70
2019-02-17T10:32:44.956Z,15.70
2019-02-17T10:35:13.696Z,16.23
2019-02-17T10:37:42.321Z,16.50
2019-02-17T10:40:18.991Z,16.30
2019-02-17T10:42:47.554Z,16.97
2019-02-17T10:45:16.429Z,16.50
2019-02-17T10:47:45.050Z,18.57
2019-02-17T10:50:13.895Z,16.70
2019-02-17T10:52:42.527Z,16.30
2019-02-17T10:55:12.866Z,17.20
2019-02-17T10:57:41.541Z,16.50
2019-02-17T11:00:20.901Z,17.03
2019-02-17T11:02:49.730Z,17.77
2019-02-17T11:05:18.497Z,17.30
2019-02-17T11:07:47.110Z,17.00
2019-02-17T11:10:15.730Z,18.00
2019-02-17T11:12:44.438Z,17.10
2019-02-17T11:15:18.144Z,16.47
2019-02-17T11:17:47.108Z,17.77
2019-02-17T11:20:15.854Z,17.60
2019-02-17T11:22:44.572Z,16.87
2019-02-17T11:25:13.418Z,16.80
2019-02-17T11:27:42.185Z,16.63
2019-02-17T11:30:17.421Z,17.47
2019-02-17T11:32:46.106Z,18.90
2019-02-17T11:35:14.812Z,17.40
2019-02-17T11:37:45.186Z,18.30
2019-02-17T11:40:13.998Z,17.50
2019-02-17T11:42:42.911Z,17.40
2019-02-17T11:45:15.152Z,17.63
2019-02-17T11:47:44.016Z,19.00
2019-02-17T11:50:12.750Z,16.97
2019-02-17T11:52:41.413Z,18.37
2019-02-17T11:55:12.177Z,19.13
2019-02-17T11:57:41.971Z,17.30
2019-02-17T12:00:13.934Z,19.10
2019-02-17T12:02:43.196Z,17.50
2019-02-17T12:05:12.237Z,18.00
2019-02-17T12:07:40.878Z,19.07
2019-02-17T12:10:11.814Z,19.40
2019-02-17T12:12:42.187Z,19.70
2019-02-17T12:15:13.166Z,19.77
2019-02-17T12:17:42.042Z,19.50
2019-02-17T12:20:33.898Z,19.80
2019-02-17T12:23:04.298Z,20.20
2019-02-17T12:25:34.735Z,19.80
2019-02-17T12:28:07.884Z,20.67
2019-02-17T12:30:37.418Z,19.77
2019-02-17T12:33:06.181Z,19.50
2019-02-17T12:35:35.169Z,20.10
2019-02-17T12:38:04.042Z,20.97
2019-02-17T12:40:32.737Z,20.40
2019-02-17T12:43:01.813Z,18.23
2019-02-17T12:45:30.652Z,21.03
2019-02-17T12:47:59.373Z,19.23
2019-02-17T12:50:28.159Z,20.60
2019-02-17T12:52:56.777Z,20.00
2019-02-17T12:55:25.462Z,20.90
2019-02-17T12:57:54.048Z,20.47
2019-02-17T13:00:24.308Z,20.67
2019-02-17T13:02:53.053Z,21.40
2019-02-17T13:05:21.617Z,21.23
2019-02-17T13:07:50.406Z,20.97
2019-02-17T13:10:18.920Z,20.03
2019-02-17T13:12:47.655Z,20.67
2019-02-17T13:15:16.310Z,20.27
2019-02-17T13:17:44.918Z,21.97
2019-02-17T13:20:14.882Z,20.33
2019-02-17T13:22:43.584Z,20.83
2019-02-17T13:25:16.758Z,20.30
2019-02-17T13:27:45.691Z,20.40
2019-02-17T13:30:20.048Z,20.20
2019-02-17T13:32:48.872Z,20.30
2019-02-17T13:35:17.859Z,20.70
2019-02-17T13:37:47.175Z,21.07
2019-02-17T13:40:15.850Z,19.00
2019-02-17T13:42:44.622Z,20.10
2019-02-17T13:45:15.726Z,19.53
2019-02-17T13:47:44.582Z,18.80
2019-02-17T13:50:15.449Z,21.10
2019-02-17T13:52:44.075Z,19.93
2019-02-17T13:55:12.728Z,19.17
2019-02-17T13:57:41.752Z,21.10
2019-02-17T14:00:15.563Z,19.43
2019-02-17T14:02:44.189Z,18.50
2019-02-17T14:05:12.753Z,18.37
2019-02-17T14:07:41.678Z,19.90
2019-02-17T14:10:14.126Z,20.20
2019-02-17T14:12:42.996Z,20.20
2019-02-17T14:15:14.815Z,20.60
2019-02-17T14:17:43.453Z,19.30
2019-02-17T14:20:12.060Z,20.60
2019-02-17T14:22:40.725Z,19.77
2019-02-17T14:25:11.954Z,17.70
2019-02-17T14:27:40.625Z,19.73
2019-02-17T14:30:17.533Z,18.57
2019-02-17T14:32:46.300Z,19.40
2019-02-17T14:35:14.896Z,18.40
2019-02-17T14:37:43.569Z,18.73
2019-02-17T14:40:14.127Z,18.60
2019-02-17T14:42:44.013Z,18.80
2019-02-17T14:45:14.216Z,18.83
2019-02-17T14:47:43.518Z,17.70
2019-02-17T14:50:13.732Z,18.47
2019-02-17T14:52:42.390Z,18.43
2019-02-17T14:55:14.044Z,20.20
2019-02-17T14:57:42.782Z,18.27
2019-02-17T15:00:13.904Z,18.93
2019-02-17T15:02:42.692Z,18.40
2019-02-17T15:05:11.795Z,18.90
2019-02-17T15:07:40.598Z,19.10
2019-02-17T15:10:11.055Z,19.00
2019-02-17T15:12:40.151Z,20.70
2019-02-17T15:15:13.713Z,19.47
2019-02-17T15:17:42.828Z,19.57
2019-02-17T15:20:13.938Z,20.50
2019-02-17T15:22:42.978Z,20.03
2019-02-17T15:25:12.314Z,22.43
2019-02-17T15:27:41.087Z,18.50
2019-02-17T15:30:12.559Z,20.90
2019-02-17T15:32:41.160Z,21.50
2019-02-17T15:35:09.824Z,20.20
2019-02-17T15:37:38.550Z,20.40
2019-02-17T15:40:10.984Z,20.90
2019-02-17T15:42:39.589Z,20.73
2019-02-17T15:45:12.732Z,21.40
2019-02-17T15:47:41.538Z,21.90
2019-02-17T15:50:11.712Z,20.37
2019-02-17T15:52:40.290Z,21.40
2019-02-17T15:55:11.463Z,21.17
2019-02-17T15:57:40.165Z,20.00
2019-02-17T16:00:16.872Z,20.23
2019-02-17T16:02:45.648Z,20.40
2019-02-17T16:05:14.412Z,21.97
2019-02-17T16:07:43.240Z,21.60
2019-02-17T16:10:13.228Z,21.40
2019-02-17T16:12:41.975Z,20.80
2019-02-17T16:15:19.611Z,20.33
2019-02-17T16:17:48.177Z,21.37
2019-02-17T16:20:16.727Z,19.03
2019-02-17T16:22:45.328Z,20.63
2019-02-17T16:25:13.931Z,20.03
2019-02-17T16:27:42.502Z,20.00
2019-02-17T16:30:28.511Z,19.37
2019-02-17T16:32:57.407Z,19.77
2019-02-17T16:35:25.897Z,18.97
2019-02-17T16:37:54.405Z,20.00
2019-02-17T16:40:22.904Z,20.43
2019-02-17T16:42:51.460Z,19.70
2019-02-17T16:45:20.365Z,19.67
2019-02-17T16:47:48.917Z,18.13
2019-02-17T16:50:20.589Z,19.30
2019-02-17T16:52:49.144Z,19.67
2019-02-17T16:55:17.626Z,20.07
2019-02-17T16:57:46.267Z,19.70
2019-02-17T17:00:22.948Z,18.33
2019-02-17T17:02:52.913Z,18.80
2019-02-17T17:05:22.448Z,20.07
2019-02-17T17:07:51.150Z,17.80
2019-02-17T17:10:19.688Z,16.90
2019-02-17T17:12:48.217Z,19.17
2019-02-17T17:15:17.276Z,17.37
2019-02-17T17:17:45.811Z,18.33
2019-02-17T17:20:22.156Z,18.00
2019-02-17T17:22:50.952Z,19.90
2019-02-17T17:25:19.466Z,18.27
2019-02-17T17:27:48.115Z,17.90
2019-02-17T17:30:18.032Z,16.57
2019-02-17T17:32:46.578Z,18.20
2019-02-17T17:35:15.050Z,18.07
2019-02-17T17:37:45.360Z,17.10
2019-02-17T17:40:15.519Z,18.50
2019-02-17T17:42:44.127Z,17.70
2019-02-17T17:45:17.863Z,17.77
2019-02-17T17:47:46.496Z,17.60
2019-02-17T17:50:15.824Z,15.87
2019-02-17T17:52:44.412Z,15.73
2019-02-17T17:55:13.744Z,18.77
2019-02-17T17:57:42.363Z,16.30
2019-02-17T18:00:19.663Z,17.03
2019-02-17T18:02:48.199Z,15.47
2019-02-17T18:05:16.683Z,17.33
2019-02-17T18:07:45.293Z,16.50
2019-02-17T18:10:17.383Z,15.40
2019-02-17T18:12:45.947Z,16.70
2019-02-17T18:15:18.475Z,16.80
2019-02-17T18:17:54.600Z,17.17
2019-02-17T18:20:19.237Z,16.20
2019-02-17T18:22:47.966Z,16.47
2019-02-17T18:25:16.589Z,15.60
2019-02-17T18:27:45.157Z,16.67
2019-02-17T18:30:18.984Z,17.73
2019-02-17T18:32:47.592Z,17.07
2019-02-17T18:35:20.118Z,16.20
2019-02-17T18:37:46.462Z,17.57
2019-02-17T18:40:17.932Z,17.00
2019-02-17T18:42:46.498Z,18.20
2019-02-17T18:45:16.084Z,16.07
2019-02-17T18:47:44.645Z,15.97
2019-02-17T18:50:14.600Z,17.00
2019-02-17T18:52:43.127Z,17.97
2019-02-17T18:55:13.045Z,17.93
2019-02-17T18:57:49.507Z,18.60
2019-02-17T19:00:23.498Z,18.83
2019-02-17T19:02:52.134Z,19.27
2019-02-17T19:05:31.108Z,22.03
2019-02-17T19:07:51.332Z,17.33
2019-02-17T19:10:19.957Z,18.53
2019-02-17T19:12:48.613Z,17.63
2019-02-17T19:15:19.369Z,17.53
2019-02-17T19:17:48.262Z,17.50
2019-02-17T19:20:20.010Z,18.17
2019-02-17T19:22:48.550Z,18.97
2019-02-17T19:25:17.049Z,18.07
2019-02-17T19:27:45.618Z,17.00
2019-02-17T19:30:15.755Z,17.73
2019-02-17T19:32:44.656Z,18.50
2019-02-17T19:35:14.916Z,18.60
2019-02-17T19:37:43.503Z,17.43
2019-02-17T19:40:15.214Z,16.40
2019-02-17T19:42:44.129Z,17.40
2019-02-17T19:45:15.807Z,16.57
2019-02-17T19:47:44.405Z,18.83
2019-02-17T19:50:14.202Z,19.30
2019-02-17T19:52:42.811Z,18.63
2019-02-17T19:55:12.834Z,19.37
2019-02-17T19:57:41.805Z,18.43
2019-02-17T20:00:17.421Z,18.50
2019-02-17T20:03:03.821Z,17.30
2019-02-17T20:05:51.693Z,17.77
2019-02-17T20:08:13.819Z,19.00
2019-02-17T20:10:42.417Z,18.03
2019-02-17T20:13:10.977Z,18.20
2019-02-17T20:15:39.487Z,18.30
2019-02-17T20:18:08.041Z,18.00
2019-02-17T20:20:36.980Z,18.90
2019-02-17T20:23:05.611Z,17.80
2019-02-17T20:25:34.102Z,17.10
2019-02-17T20:28:02.601Z,18.00
2019-02-17T20:30:31.145Z,17.80
2019-02-17T20:32:59.820Z,17.93
2019-02-17T20:35:28.369Z,17.57
2019-02-17T20:37:56.967Z,17.67
2019-02-17T20:40:25.559Z,19.07
2019-02-17T20:42:54.208Z,17.23
2019-02-17T20:45:22.718Z,17.20
2019-02-17T20:47:51.310Z,19.13
2019-02-17T20:50:20.300Z,18.07
2019-02-17T20:52:48.845Z,19.30
2019-02-17T20:55:17.394Z,17.40
2019-02-17T20:57:45.974Z,16.73
2019-02-17T21:00:18.253Z,16.70
2019-02-17T21:02:46.846Z,15.90
2019-02-17T21:05:15.964Z,18.03
2019-02-17T21:07:44.578Z,17.50
2019-02-17T21:10:14.753Z,18.43
2019-02-17T21:12:43.411Z,18.37
2019-02-17T21:15:21.907Z,16.80
2019-02-17T21:17:51.054Z,15.60
2019-02-17T21:20:20.523Z,16.63
2019-02-17T21:22:49.181Z,15.80
2019-02-17T21:25:17.718Z,18.30
2019-02-17T21:27:46.405Z,17.87
2019-02-17T21:30:19.595Z,17.63
2019-02-17T21:32:48.777Z,16.53
2019-02-17T21:35:17.696Z,16.90
2019-02-17T21:37:46.390Z,16.60
2019-02-17T21:40:15.289Z,17.27
2019-02-17T21:42:43.980Z,17.40
2019-02-17T21:45:14.707Z,16.80
2019-02-17T21:47:43.285Z,17.93
2019-02-17T21:50:15.710Z,17.50
2019-02-17T21:52:44.345Z,16.97
2019-02-17T21:55:14.485Z,18.20
2019-02-17T21:57:43.086Z,17.63
2019-02-17T22:00:19.944Z,17.40
2019-02-17T22:02:49.443Z,16.93
2019-02-17T22:05:18.228Z,16.37
2019-02-17T22:07:46.917Z,17.87
2019-02-17T22:10:17.184Z,16.77
2019-02-17T22:12:45.823Z,16.53
2019-02-17T22:15:16.628Z,16.23
2019-02-17T22:17:46.288Z,17.73
2019-02-17T22:20:14.934Z,16.97
2019-02-17T22:22:43.515Z,18.80
2019-02-17T22:25:13.229Z,18.13
2019-02-17T22:27:41.865Z,16.83
2019-02-17T22:30:14.929Z,18.90
2019-02-17T22:32:43.687Z,17.77
2019-02-17T22:35:12.299Z,17.73
2019-02-17T22:37:40.950Z,17.50
2019-02-17T22:40:16.482Z,17.17
2019-02-17T22:42:45.034Z,17.10
2019-02-17T22:45:14.891Z,17.50
2019-02-17T22:47:43.533Z,16.43
2019-02-17T22:50:13.787Z,16.40
2019-02-17T22:52:42.300Z,16.30
2019-02-17T22:55:12.190Z,18.00
2019-02-17T22:57:40.764Z,17.63
2019-02-17T23:00:40.932Z,16.80
2019-02-17T23:03:09.938Z,17.03
2019-02-17T23:05:38.790Z,16.50
2019-02-17T23:08:07.750Z,17.70
2019-02-17T23:10:36.299Z,16.80
2019-02-17T23:13:04.882Z,18.37
2019-02-17T23:15:33.519Z,17.70
2019-02-17T23:18:02.111Z,17.37
2019-02-17T23:20:30.995Z,16.57
2019-02-17T23:22:59.527Z,19.10
2019-02-17T23:25:28.126Z,19.27
2019-02-17T23:27:56.753Z,20.10
2019-02-17T23:30:25.273Z,19.33
2019-02-17T23:32:53.929Z,18.17
2019-02-17T23:35:22.450Z,17.10
2019-02-17T23:37:51.042Z,18.60
2019-02-17T23:40:19.591Z,19.27
2019-02-17T23:42:48.149Z,18.10
2019-02-17T23:45:16.666Z,17.33
2019-02-17T23:47:45.272Z,18.50
2019-02-17T23:50:14.555Z,18.53
2019-02-17T23:52:43.744Z,19.93
2019-02-17T23:55:12.608Z,19.73
2019-02-17T23:57:41.240Z,18.70
